createdAt,value
2019-03-30T00:00:39.079Z,56.77
2019-03-30T00:03:07.529Z,57.67
2019-03-30T00:05:35.949Z,59.30
2019-03-30T00:08:05.029Z,69.70
2019-03-30T00:10:33.538Z,60.17
2019-03-30T00:13:03.008Z,63.73
2019-03-30T00:15:32.970Z,63.33
2019-03-30T00:18:01.593Z,62.07
2019-03-30T00:20:30.013Z,60.07
2019-03-30T00:23:00.344Z,60.63
2019-03-30T00:25:31.514Z,60.83
2019-03-30T00:27:59.895Z,56.00
2019-03-30T00:30:28.453Z,60.20
2019-03-30T00:32:56.850Z,59.90
2019-03-30T00:35:25.191Z,61.17
2019-03-30T00:37:55.085Z,58.47
2019-03-30T00:40:23.501Z,58.83
2019-03-30T00:42:53.031Z,57.40
2019-03-30T00:45:22.119Z,63.63
2019-03-30T00:47:52.252Z,56.97
2019-03-30T00:50:20.647Z,56.43
2019-03-30T00:52:50.239Z,64.30
2019-03-30T00:55:18.625Z,60.90
2019-03-30T00:57:47.286Z,61.23
2019-03-30T01:00:16.121Z,57.23
2019-03-30T01:02:46.341Z,61.90
2019-03-30T01:05:14.839Z,58.97
2019-03-30T01:07:43.409Z,59.83
2019-03-30T01:10:11.984Z,58.37
2019-03-30T01:12:41.452Z,59.63
2019-03-30T01:15:11.129Z,57.67
2019-03-30T01:17:41.283Z,57.40
2019-03-30T01:20:10.191Z,56.80
2019-03-30T01:22:38.712Z,55.17
2019-03-30T01:25:07.614Z,56.00
2019-03-30T01:27:35.930Z,59.07
2019-03-30T01:30:05.144Z,58.60
2019-03-30T01:32:35.029Z,61.17
2019-03-30T01:35:03.560Z,64.30
2019-03-30T01:37:32.078Z,56.47
2019-03-30T01:40:00.446Z,55.67
2019-03-30T01:42:28.721Z,53.87
2019-03-30T01:44:57.228Z,59.27
2019-03-30T01:47:25.629Z,61.43
2019-03-30T01:49:53.984Z,53.93
2019-03-30T01:52:24.825Z,57.87
2019-03-30T01:54:53.351Z,56.83
2019-03-30T01:57:22.133Z,57.97
2019-03-30T01:59:50.669Z,57.73
2019-03-30T02:02:20.128Z,57.50
2019-03-30T02:04:48.515Z,63.97
2019-03-30T02:07:17.488Z,58.00
2019-03-30T02:09:47.681Z,60.30
2019-03-30T02:12:17.157Z,55.83
2019-03-30T02:14:46.958Z,54.50
2019-03-30T02:17:15.346Z,54.30
2019-03-30T02:19:44.029Z,54.57
2019-03-30T02:22:13.083Z,55.80
2019-03-30T02:24:41.424Z,56.37
2019-03-30T02:27:10.925Z,52.80
2019-03-30T02:29:39.707Z,51.17
2019-03-30T02:32:08.099Z,53.23
2019-03-30T02:34:36.481Z,59.53
2019-03-30T02:37:05.159Z,56.50
2019-03-30T02:39:34.675Z,52.23
2019-03-30T02:42:03.059Z,50.97
2019-03-30T02:44:31.757Z,52.53
2019-03-30T02:47:00.151Z,55.33
2019-03-30T02:49:28.636Z,57.67
2019-03-30T02:51:57.309Z,56.80
2019-03-30T02:54:25.673Z,50.70
2019-03-30T02:56:54.037Z,51.67
2019-03-30T02:59:22.506Z,54.20
2019-03-30T03:01:51.050Z,54.97
2019-03-30T03:04:19.510Z,51.47
2019-03-30T03:06:48.193Z,54.40
2019-03-30T03:09:16.940Z,54.73
2019-03-30T03:11:46.416Z,53.77
2019-03-30T03:14:15.033Z,57.17
2019-03-30T03:16:43.402Z,50.03
2019-03-30T03:19:13.320Z,52.07
2019-03-30T03:21:41.754Z,48.50
2019-03-30T03:24:10.489Z,48.20
2019-03-30T03:26:38.876Z,51.40
2019-03-30T03:29:07.501Z,49.23
2019-03-30T03:31:35.959Z,51.60
2019-03-30T03:34:06.173Z,55.10
2019-03-30T03:36:34.607Z,49.47
2019-03-30T03:39:03.270Z,52.07
2019-03-30T03:41:32.974Z,50.30
2019-03-30T03:44:01.833Z,50.67
2019-03-30T03:46:30.233Z,49.80
2019-03-30T03:48:58.629Z,52.73
2019-03-30T03:51:28.743Z,51.20
2019-03-30T03:53:57.078Z,51.40
2019-03-30T03:56:26.875Z,50.63
2019-03-30T03:58:57.561Z,51.53
2019-03-30T04:01:27.482Z,48.83
2019-03-30T04:03:57.418Z,52.17
2019-03-30T04:06:27.637Z,48.67
2019-03-30T04:08:57.453Z,45.27
2019-03-30T04:11:27.285Z,53.53
2019-03-30T04:13:57.021Z,51.23
2019-03-30T04:16:26.938Z,49.73
2019-03-30T04:18:55.388Z,46.40
2019-03-30T04:21:23.784Z,52.40
2019-03-30T04:23:54.223Z,49.53
2019-03-30T04:26:22.330Z,49.20
2019-03-30T04:28:50.958Z,49.33
2019-03-30T04:31:19.302Z,50.73
2019-03-30T04:33:47.653Z,48.07
2019-03-30T04:36:16.211Z,52.03
2019-03-30T04:38:44.618Z,47.13
2019-03-30T04:41:13.047Z,43.50
2019-03-30T04:43:41.655Z,44.57
2019-03-30T04:46:10.053Z,44.20
2019-03-30T04:48:38.450Z,48.27
2019-03-30T04:51:07.121Z,45.93
2019-03-30T04:53:35.619Z,51.27
2019-03-30T04:56:03.944Z,49.13
2019-03-30T04:58:32.573Z,49.00
2019-03-30T05:01:00.935Z,45.93
2019-03-30T05:03:29.358Z,45.93
2019-03-30T05:05:58.033Z,48.23
2019-03-30T05:08:26.437Z,45.83
2019-03-30T05:10:54.825Z,44.90
2019-03-30T05:13:23.336Z,49.43
2019-03-30T05:15:51.776Z,46.90
2019-03-30T05:18:20.092Z,46.90
2019-03-30T05:20:48.842Z,51.97
2019-03-30T05:23:18.389Z,45.83
2019-03-30T05:25:46.839Z,47.50
2019-03-30T05:28:15.685Z,48.03
2019-03-30T05:30:45.569Z,46.90
2019-03-30T05:33:13.909Z,43.80
2019-03-30T05:35:42.534Z,47.47
2019-03-30T05:38:10.879Z,44.37
2019-03-30T05:40:39.271Z,47.17
2019-03-30T05:43:07.976Z,44.10
2019-03-30T05:45:36.491Z,42.77
2019-03-30T05:48:05.937Z,42.00
2019-03-30T05:50:34.418Z,40.30
2019-03-30T05:53:02.861Z,40.67
2019-03-30T05:55:31.232Z,39.20
2019-03-30T05:57:59.634Z,36.57
2019-03-30T06:00:27.948Z,40.20
2019-03-30T06:02:56.259Z,37.17
2019-03-30T06:05:24.868Z,33.70
2019-03-30T06:07:53.166Z,37.53
2019-03-30T06:10:21.475Z,35.93
2019-03-30T06:12:49.843Z,32.73
2019-03-30T06:15:18.176Z,30.83
2019-03-30T06:17:46.496Z,32.63
2019-03-30T06:20:17.130Z,33.47
2019-03-30T06:22:46.465Z,31.30
2019-03-30T06:25:14.826Z,32.57
2019-03-30T06:27:43.377Z,31.73
2019-03-30T06:30:22.929Z,30.53
2019-03-30T06:32:51.366Z,29.33
2019-03-30T06:35:19.774Z,29.93
2019-03-30T06:37:48.129Z,30.30
2019-03-30T06:40:16.475Z,30.37
2019-03-30T06:42:44.977Z,29.13
2019-03-30T06:45:13.325Z,29.10
2019-03-30T06:47:41.652Z,26.97
2019-03-30T06:50:11.256Z,28.63
2019-03-30T06:52:46.063Z,29.10
2019-03-30T06:55:12.189Z,26.67
2019-03-30T06:57:41.882Z,26.63
2019-03-30T07:00:10.271Z,26.67
2019-03-30T07:02:39.325Z,25.00
2019-03-30T07:05:08.905Z,27.33
2019-03-30T07:07:38.088Z,25.97
2019-03-30T07:10:06.747Z,25.23
2019-03-30T07:12:37.772Z,25.50
2019-03-30T07:15:07.325Z,22.40
2019-03-30T07:17:38.165Z,26.03
2019-03-30T07:20:08.296Z,23.63
2019-03-30T07:22:38.533Z,26.10
2019-03-30T07:25:08.748Z,25.63
2019-03-30T07:27:37.272Z,25.77
2019-03-30T07:30:07.330Z,25.47
2019-03-30T07:32:37.269Z,26.70
2019-03-30T07:35:05.949Z,22.60
2019-03-30T07:37:34.300Z,21.37
2019-03-30T07:40:02.729Z,20.30
2019-03-30T07:42:31.518Z,20.63
2019-03-30T07:44:59.873Z,21.03
2019-03-30T07:47:29.416Z,21.10
2019-03-30T07:49:58.192Z,22.10
2019-03-30T07:52:26.494Z,19.67
2019-03-30T07:54:56.107Z,22.10
2019-03-30T07:57:24.690Z,20.23
2019-03-30T07:59:53.029Z,22.77
2019-03-30T08:02:21.354Z,19.00
2019-03-30T08:04:50.136Z,18.77
2019-03-30T08:07:18.521Z,19.40
2019-03-30T08:09:46.869Z,23.57
2019-03-30T08:12:15.288Z,18.87
2019-03-30T08:14:45.102Z,19.80
2019-03-30T08:17:13.792Z,18.53
2019-03-30T08:19:42.252Z,18.77
2019-03-30T08:22:10.609Z,19.10
2019-03-30T08:24:39.086Z,19.47
2019-03-30T08:27:07.513Z,20.47
2019-03-30T08:29:36.990Z,18.90
2019-03-30T08:32:05.277Z,20.67
2019-03-30T08:34:34.112Z,19.33
2019-03-30T08:37:02.607Z,18.93
2019-03-30T08:39:31.069Z,19.50
2019-03-30T08:41:59.543Z,18.30
2019-03-30T08:44:27.981Z,18.47
2019-03-30T08:46:56.459Z,17.17
2019-03-30T08:49:26.725Z,17.87
2019-03-30T08:51:55.264Z,18.07
2019-03-30T08:54:23.601Z,18.07
2019-03-30T08:56:52.326Z,19.00
2019-03-30T08:59:20.808Z,20.37
2019-03-30T09:01:49.141Z,17.57
2019-03-30T09:04:17.542Z,17.77
2019-03-30T09:06:45.881Z,19.32
2019-03-30T09:09:14.220Z,18.40
2019-03-30T09:11:43.602Z,17.80
2019-03-30T09:14:14.035Z,18.30
2019-03-30T09:16:42.425Z,18.00
2019-03-30T09:19:12.386Z,17.73
2019-03-30T09:21:40.794Z,18.40
2019-03-30T09:24:10.574Z,17.02
2019-03-30T09:26:39.265Z,18.62
2019-03-30T09:29:07.652Z,19.10
2019-03-30T09:31:37.169Z,18.87
2019-03-30T09:34:07.213Z,18.77
2019-03-30T09:36:35.997Z,23.17
2019-03-30T09:39:05.692Z,19.53
2019-03-30T09:41:35.191Z,17.87
2019-03-30T09:44:05.347Z,19.30
2019-03-30T09:46:33.719Z,20.63
2019-03-30T09:49:02.549Z,21.97
2019-03-30T09:51:30.986Z,21.60
2019-03-30T09:53:59.409Z,19.37
2019-03-30T09:56:29.256Z,20.50
2019-03-30T09:58:57.594Z,20.73
2019-03-30T10:01:27.036Z,20.10
2019-03-30T10:03:55.748Z,21.97
2019-03-30T10:06:33.942Z,19.93
2019-03-30T10:08:54.285Z,20.83
2019-03-30T10:11:24.534Z,19.00
2019-03-30T10:13:53.090Z,22.03
2019-03-30T10:16:21.574Z,23.07
2019-03-30T10:18:50.090Z,22.47
2019-03-30T10:21:18.515Z,26.27
2019-03-30T10:23:46.889Z,23.43
2019-03-30T10:26:16.631Z,24.30
2019-03-30T10:28:47.070Z,24.00
2019-03-30T10:31:15.149Z,23.70
2019-03-30T10:33:43.693Z,23.67
2019-03-30T10:36:12.116Z,21.67
2019-03-30T10:38:40.824Z,22.87
2019-03-30T10:41:09.352Z,22.23
2019-03-30T10:43:37.887Z,20.87
2019-03-30T10:46:06.265Z,22.73
2019-03-30T10:48:34.744Z,22.97
2019-03-30T10:51:04.264Z,24.37
2019-03-30T10:53:32.785Z,26.50
2019-03-30T10:56:02.421Z,25.47
2019-03-30T10:58:30.856Z,25.03
2019-03-30T11:00:59.652Z,25.87
2019-03-30T11:03:28.353Z,23.20
2019-03-30T11:05:57.882Z,29.70
2019-03-30T11:08:27.479Z,28.87
2019-03-30T11:10:58.285Z,27.40
2019-03-30T11:13:26.661Z,28.27
2019-03-30T11:15:55.042Z,30.40
2019-03-30T11:18:27.904Z,29.63
2019-03-30T11:20:56.337Z,28.27
2019-03-30T11:23:24.785Z,30.47
2019-03-30T11:25:53.337Z,28.83
2019-03-30T11:28:21.889Z,27.13
2019-03-30T11:30:50.697Z,27.43
2019-03-30T11:33:19.382Z,25.13
2019-03-30T11:35:49.623Z,26.53
2019-03-30T11:38:18.292Z,26.10
2019-03-30T11:40:48.210Z,24.30
2019-03-30T11:43:16.675Z,25.77
2019-03-30T11:45:47.928Z,23.80
2019-03-30T11:48:16.279Z,26.10
2019-03-30T11:50:44.838Z,22.70
2019-03-30T11:53:13.270Z,24.07
2019-03-30T11:55:41.846Z,23.20
2019-03-30T11:58:10.204Z,22.07
2019-03-30T12:00:38.623Z,22.07
2019-03-30T12:03:08.464Z,20.73
2019-03-30T12:05:36.820Z,21.00
2019-03-30T12:08:05.174Z,22.43
2019-03-30T12:10:33.836Z,20.70
2019-03-30T12:13:02.773Z,20.10
2019-03-30T12:15:31.180Z,19.43
2019-03-30T12:17:59.837Z,20.27
2019-03-30T12:20:29.420Z,21.07
2019-03-30T12:22:57.857Z,20.50
2019-03-30T12:25:35.516Z,18.23
2019-03-30T12:27:56.372Z,17.43
2019-03-30T12:30:24.820Z,19.10
2019-03-30T12:32:54.972Z,18.50
2019-03-30T12:35:23.481Z,19.03
2019-03-30T12:37:51.830Z,18.27
2019-03-30T12:40:20.539Z,16.43
2019-03-30T12:42:49.282Z,16.57
2019-03-30T12:45:17.604Z,15.60
2019-03-30T12:47:47.628Z,15.57
2019-03-30T12:50:16.209Z,14.93
2019-03-30T12:52:47.015Z,15.50
2019-03-30T12:55:15.627Z,17.07
2019-03-30T12:57:45.081Z,16.47
2019-03-30T13:00:14.895Z,15.77
2019-03-30T13:02:43.458Z,13.90
2019-03-30T13:05:12.013Z,13.00
2019-03-30T13:07:41.864Z,11.30
2019-03-30T13:10:10.449Z,14.50
2019-03-30T13:12:38.837Z,13.03
2019-03-30T13:15:07.444Z,13.57
2019-03-30T13:17:36.013Z,16.27
2019-03-30T13:20:04.511Z,12.77
2019-03-30T13:22:34.428Z,14.13
2019-03-30T13:25:02.970Z,12.93
2019-03-30T13:27:31.482Z,12.00
2019-03-30T13:29:59.864Z,13.87
2019-03-30T13:32:28.306Z,14.20
2019-03-30T13:34:56.747Z,13.67
2019-03-30T13:37:25.125Z,12.50
2019-03-30T13:39:53.907Z,12.60
2019-03-30T13:42:22.284Z,11.90
2019-03-30T13:44:50.994Z,13.13
2019-03-30T13:47:20.702Z,11.97
2019-03-30T13:49:49.165Z,12.67
2019-03-30T13:52:17.569Z,13.93
2019-03-30T13:54:46.128Z,11.63
2019-03-30T13:57:14.545Z,11.40
2019-03-30T13:59:42.878Z,11.43
2019-03-30T14:02:13.247Z,13.30
2019-03-30T14:04:41.633Z,13.77
2019-03-30T14:07:09.960Z,13.50
2019-03-30T14:09:39.548Z,12.77
2019-03-30T14:12:07.896Z,11.70
2019-03-30T14:14:37.323Z,12.10
2019-03-30T14:17:06.009Z,11.87
2019-03-30T14:19:34.458Z,12.27
2019-03-30T14:22:02.999Z,12.40
2019-03-30T14:24:31.771Z,12.03
2019-03-30T14:27:00.159Z,12.43
2019-03-30T14:29:28.618Z,11.50
2019-03-30T14:31:57.224Z,12.80
2019-03-30T14:34:25.708Z,11.87
2019-03-30T14:36:54.287Z,12.70
2019-03-30T14:39:22.948Z,12.20
2019-03-30T14:41:51.329Z,12.27
2019-03-30T14:44:20.797Z,11.80
2019-03-30T14:46:50.064Z,11.40
2019-03-30T14:49:19.496Z,12.10
2019-03-30T14:51:47.878Z,11.93
2019-03-30T14:54:16.417Z,13.20
2019-03-30T14:56:46.153Z,13.10
2019-03-30T14:59:14.764Z,12.37
2019-03-30T15:01:43.445Z,11.93
2019-03-30T15:04:11.833Z,12.27
2019-03-30T15:06:40.237Z,11.00
2019-03-30T15:09:08.853Z,11.10
2019-03-30T15:11:38.083Z,10.40
2019-03-30T15:14:06.680Z,11.43
2019-03-30T15:16:35.265Z,10.90
2019-03-30T15:19:06.083Z,9.87
2019-03-30T15:21:34.496Z,10.43
2019-03-30T15:24:03.318Z,9.90
2019-03-30T15:26:32.835Z,11.13
2019-03-30T15:29:01.145Z,12.00
2019-03-30T15:31:29.859Z,11.07
2019-03-30T15:33:58.251Z,11.10
2019-03-30T15:36:26.736Z,10.17
2019-03-30T15:38:55.262Z,12.87
2019-03-30T15:41:23.629Z,12.00
2019-03-30T15:43:52.288Z,13.80
2019-03-30T15:46:22.161Z,13.57
2019-03-30T15:48:50.823Z,15.53
2019-03-30T15:51:19.129Z,12.37
2019-03-30T15:53:47.687Z,13.33
2019-03-30T15:56:16.012Z,12.67
2019-03-30T15:58:44.309Z,12.23
2019-03-30T16:01:12.773Z,13.10
2019-03-30T16:03:42.546Z,12.80
2019-03-30T16:06:10.861Z,14.57
2019-03-30T16:08:40.811Z,12.40
2019-03-30T16:11:09.333Z,11.57
2019-03-30T16:13:37.741Z,11.50
2019-03-30T16:16:06.103Z,11.50
2019-03-30T16:18:36.230Z,12.90
2019-03-30T16:21:06.123Z,13.87
2019-03-30T16:23:34.565Z,13.13
2019-03-30T16:26:03.212Z,12.73
2019-03-30T16:28:31.584Z,12.70
2019-03-30T16:31:00.158Z,11.40
2019-03-30T16:33:28.546Z,12.67
2019-03-30T16:35:56.933Z,12.30
2019-03-30T16:38:25.720Z,12.03
2019-03-30T16:40:54.101Z,10.90
2019-03-30T16:43:22.492Z,10.90
2019-03-30T16:45:50.994Z,10.87
2019-03-30T16:48:19.490Z,10.47
2019-03-30T16:50:48.116Z,10.40
2019-03-30T16:53:16.760Z,10.07
2019-03-30T16:55:45.092Z,11.70
2019-03-30T16:58:13.622Z,10.70
2019-03-30T17:00:55.646Z,11.00
2019-03-30T17:03:13.764Z,9.93
2019-03-30T17:05:43.488Z,10.13
2019-03-30T17:08:12.971Z,9.93
2019-03-30T17:10:41.365Z,9.70
2019-03-30T17:13:09.719Z,9.63
2019-03-30T17:15:40.031Z,52.80
2019-03-30T17:18:08.415Z,16.67
2019-03-30T17:20:36.761Z,11.10
2019-03-30T17:23:05.339Z,10.83
2019-03-30T17:25:33.764Z,9.77
2019-03-30T17:28:06.689Z,10.70
2019-03-30T17:30:33.373Z,10.83
2019-03-30T17:33:02.847Z,10.70
2019-03-30T17:35:31.226Z,11.17
2019-03-30T17:37:59.673Z,13.70
2019-03-30T17:40:28.088Z,16.50
2019-03-30T17:42:56.497Z,21.10
2019-03-30T17:45:25.076Z,34.37
2019-03-30T17:47:53.414Z,40.83
2019-03-30T17:50:22.960Z,45.17
2019-03-30T17:52:52.160Z,44.97
2019-03-30T17:55:33.072Z,47.40
2019-03-30T17:57:50.538Z,45.57
2019-03-30T18:00:19.559Z,42.33
2019-03-30T18:02:48.069Z,41.87
2019-03-30T18:05:16.541Z,44.10
2019-03-30T18:07:45.438Z,42.60
2019-03-30T18:10:14.184Z,47.10
2019-03-30T18:12:43.752Z,45.77
2019-03-30T18:15:12.260Z,45.50
2019-03-30T18:17:40.685Z,49.90
2019-03-30T18:20:09.262Z,48.73
2019-03-30T18:22:37.913Z,51.27
2019-03-30T18:25:06.466Z,47.83
2019-03-30T18:27:34.844Z,49.87
2019-03-30T18:30:04.820Z,50.80
2019-03-30T18:32:34.955Z,58.17
2019-03-30T18:35:03.749Z,59.43
2019-03-30T18:37:33.736Z,57.70
2019-03-30T18:40:03.798Z,56.20
2019-03-30T18:42:33.593Z,52.00
2019-03-30T18:45:02.170Z,55.73
2019-03-30T18:47:31.569Z,56.47
2019-03-30T18:50:00.091Z,53.90
2019-03-30T18:52:28.923Z,52.40
2019-03-30T18:54:57.635Z,60.27
2019-03-30T18:57:27.136Z,54.87
2019-03-30T18:59:55.760Z,58.83
2019-03-30T19:02:24.117Z,60.80
2019-03-30T19:04:52.516Z,62.33
2019-03-30T19:07:21.260Z,60.97
2019-03-30T19:09:49.744Z,69.97
2019-03-30T19:12:18.120Z,67.30
2019-03-30T19:14:46.722Z,67.63
2019-03-30T19:17:15.203Z,65.03
2019-03-30T19:19:43.587Z,67.37
2019-03-30T19:22:12.045Z,67.70
2019-03-30T19:24:40.368Z,73.43
2019-03-30T19:27:09.720Z,79.03
2019-03-30T19:29:39.670Z,87.00
2019-03-30T19:32:08.160Z,82.37
2019-03-30T19:34:37.565Z,77.40
2019-03-30T19:37:07.290Z,79.90
2019-03-30T19:39:35.737Z,78.23
2019-03-30T19:42:04.208Z,80.57
2019-03-30T19:44:33.864Z,82.50
2019-03-30T19:47:02.344Z,79.73
2019-03-30T19:49:32.592Z,74.03
2019-03-30T19:52:05.440Z,70.83
2019-03-30T19:54:33.944Z,74.67
2019-03-30T19:57:02.825Z,68.93
2019-03-30T19:59:31.425Z,70.60
2019-03-30T20:01:59.812Z,64.50
2019-03-30T20:04:28.193Z,65.40
2019-03-30T20:06:58.550Z,72.67
2019-03-30T20:09:27.034Z,67.30
2019-03-30T20:11:57.182Z,65.57
2019-03-30T20:14:25.754Z,64.63
2019-03-30T20:16:54.214Z,63.63
2019-03-30T20:19:22.596Z,60.87
2019-03-30T20:21:51.276Z,68.37
2019-03-30T20:24:19.652Z,68.60
2019-03-30T20:26:48.000Z,65.70
2019-03-30T20:29:25.071Z,64.40
2019-03-30T20:31:46.744Z,60.47
2019-03-30T20:34:15.258Z,58.07
2019-03-30T20:36:44.036Z,64.03
2019-03-30T20:39:12.360Z,63.80
2019-03-30T20:41:42.544Z,72.60
2019-03-30T20:44:10.975Z,70.73
2019-03-30T20:46:43.546Z,73.87
2019-03-30T20:49:10.613Z,76.47
2019-03-30T20:51:39.245Z,76.47
2019-03-30T20:54:07.741Z,76.47
2019-03-30T20:56:36.061Z,77.83
2019-03-30T20:59:04.950Z,77.73
2019-03-30T21:01:33.604Z,75.90
2019-03-30T21:04:02.078Z,74.87
2019-03-30T21:06:30.596Z,74.43
2019-03-30T21:08:59.062Z,79.80
2019-03-30T21:11:27.477Z,81.23
2019-03-30T21:13:56.826Z,82.37
2019-03-30T21:16:26.427Z,81.47
2019-03-30T21:18:54.801Z,77.47
2019-03-30T21:21:24.442Z,79.97
2019-03-30T21:23:52.909Z,77.07
2019-03-30T21:26:21.307Z,73.63
2019-03-30T21:28:49.976Z,76.87
2019-03-30T21:31:19.437Z,85.13
2019-03-30T21:33:48.104Z,89.77
2019-03-30T21:36:17.818Z,89.07
2019-03-30T21:38:46.261Z,86.83
2019-03-30T21:41:14.675Z,89.57
2019-03-30T21:43:43.089Z,84.37
2019-03-30T21:46:11.569Z,86.53
2019-03-30T21:48:40.032Z,91.50
2019-03-30T21:51:08.432Z,81.00
2019-03-30T21:53:36.756Z,84.73
2019-03-30T21:56:05.445Z,82.83
2019-03-30T21:58:34.141Z,86.20
2019-03-30T22:01:02.994Z,84.50
2019-03-30T22:03:31.303Z,79.60
2019-03-30T22:06:01.567Z,81.97
2019-03-30T22:08:30.045Z,82.80
2019-03-30T22:10:58.446Z,81.37
2019-03-30T22:13:26.807Z,89.27
2019-03-30T22:15:55.123Z,94.00
2019-03-30T22:18:23.480Z,83.63
2019-03-30T22:20:52.100Z,85.20
2019-03-30T22:23:20.421Z,88.67
2019-03-30T22:25:48.828Z,82.57
2019-03-30T22:28:19.176Z,87.57
2019-03-30T22:30:47.610Z,90.20
2019-03-30T22:33:17.077Z,86.87
2019-03-30T22:35:45.698Z,87.30
2019-03-30T22:38:14.279Z,87.87
2019-03-30T22:40:42.674Z,83.07
2019-03-30T22:43:11.512Z,84.17
2019-03-30T22:45:41.146Z,85.17
2019-03-30T22:48:09.657Z,89.30
2019-03-30T22:50:39.273Z,83.37
2019-03-30T22:53:08.299Z,94.57
2019-03-30T22:55:36.797Z,91.67
2019-03-30T22:58:05.288Z,80.23
2019-03-30T23:01:05.157Z,86.60
2019-03-30T23:03:34.101Z,90.50
2019-03-30T23:06:02.439Z,87.73
2019-03-30T23:08:30.778Z,85.27
2019-03-30T23:10:59.153Z,89.97
2019-03-30T23:13:27.658Z,83.37
2019-03-30T23:15:59.756Z,90.27
2019-03-30T23:18:28.491Z,84.90
2019-03-30T23:20:57.079Z,87.33
2019-03-30T23:23:26.721Z,90.90
2019-03-30T23:25:55.746Z,86.60
2019-03-30T23:28:24.486Z,92.97
2019-03-30T23:30:54.544Z,87.20
2019-03-30T23:33:23.105Z,84.40
2019-03-30T23:35:51.693Z,79.40
2019-03-30T23:38:21.121Z,81.70
2019-03-30T23:40:49.873Z,74.33
2019-03-30T23:43:19.484Z,79.77
2019-03-30T23:45:47.984Z,74.50
2019-03-30T23:48:16.401Z,71.97
2019-03-30T23:50:44.854Z,76.50
2019-03-30T23:53:13.251Z,68.33
2019-03-30T23:55:41.636Z,69.53
2019-03-30T23:58:10.993Z,69.60
